sensor_id;sensor_type;location;lat;lon;timestamp;P1;durP1;ratioP1;P2;durP2;ratioP2
3245;SDS011;1635;48.000;10.582;2022-07-29T00:01:05;0.60;;;0.60;;
3245;SDS011;1635;48.000;10.582;2022-07-29T00:03:33;0.70;;;0.70;;
3245;SDS011;1635;48.000;10.582;2022-07-29T00:06:00;0.60;;;0.60;;
3245;SDS011;1635;48.000;10.582;2022-07-29T00:08:30;0.60;;;0.60;;
3245;SDS011;1635;48.000;10.582;2022-07-29T00:10:59;0.60;;;0.60;;
3245;SDS011;1635;48.000;10.582;2022-07-29T00:13:27;0.60;;;0.60;;
3245;SDS011;1635;48.000;10.582;2022-07-29T00:15:59;0.60;;;0.60;;
3245;SDS011;1635;48.000;10.582;2022-07-29T00:18:31;0.70;;;0.70;;
3245;SDS011;1635;48.000;10.582;2022-07-29T00:20:59;0.60;;;0.60;;
3245;SDS011;1635;48.000;10.582;2022-07-29T00:23:27;0.60;;;0.60;;
3245;SDS011;1635;48.000;10.582;2022-07-29T00:25:56;0.60;;;0.60;;
3245;SDS011;1635;48.000;10.582;2022-07-29T00:28:24;0.60;;;0.60;;
3245;SDS011;1635;48.000;10.582;2022-07-29T00:30:51;0.67;;;0.67;;
3245;SDS011;1635;48.000;10.582;2022-07-29T00:33:19;0.70;;;0.70;;
3245;SDS011;1635;48.000;10.582;2022-07-29T00:35:49;0.60;;;0.60;;
3245;SDS011;1635;48.000;10.582;2022-07-29T00:38:18;0.60;;;0.60;;
3245;SDS011;1635;48.000;10.582;2022-07-29T00:40:47;0.60;;;0.60;;
3245;SDS011;1635;48.000;10.582;2022-07-29T00:43:16;0.60;;;0.60;;
3245;SDS011;1635;48.000;10.582;2022-07-29T00:45:44;0.60;;;0.60;;
3245;SDS011;1635;48.000;10.582;2022-07-29T00:48:12;0.50;;;0.50;;
3245;SDS011;1635;48.000;10.582;2022-07-29T00:50:40;0.60;;;0.60;;
3245;SDS011;1635;48.000;10.582;2022-07-29T00:53:08;0.50;;;0.50;;
3245;SDS011;1635;48.000;10.582;2022-07-29T00:55:39;0.60;;;0.60;;
3245;SDS011;1635;48.000;10.582;2022-07-29T00:58:06;0.70;;;0.70;;
3245;SDS011;1635;48.000;10.582;2022-07-29T01:00:34;0.60;;;0.60;;
3245;SDS011;1635;48.000;10.582;2022-07-29T01:03:02;0.50;;;0.50;;
3245;SDS011;1635;48.000;10.582;2022-07-29T01:05:31;0.60;;;0.60;;
3245;SDS011;1635;48.000;10.582;2022-07-29T01:08:17;0.63;;;0.63;;
3245;SDS011;1635;48.000;10.582;2022-07-29T01:10:47;0.70;;;0.70;;
3245;SDS011;1635;48.000;10.582;2022-07-29T01:13:17;0.60;;;0.60;;
3245;SDS011;1635;48.000;10.582;2022-07-29T01:16:21;3.70;;;1.10;;
3245;SDS011;1635;48.000;10.582;2022-07-29T01:18:46;0.60;;;0.60;;
3245;SDS011;1635;48.000;10.582;2022-07-29T01:24:11;0.97;;;0.97;;
3245;SDS011;1635;48.000;10.582;2022-07-29T01:26:59;0.50;;;0.50;;
3245;SDS011;1635;48.000;10.582;2022-07-29T01:29:43;0.50;;;0.50;;
3245;SDS011;1635;48.000;10.582;2022-07-29T01:32:18;0.60;;;0.60;;
3245;SDS011;1635;48.000;10.582;2022-07-29T01:34:59;0.50;;;0.50;;
3245;SDS011;1635;48.000;10.582;2022-07-29T01:37:52;0.57;;;0.57;;
3245;SDS011;1635;48.000;10.582;2022-07-29T01:40:40;0.50;;;0.50;;
3245;SDS011;1635;48.000;10.582;2022-07-29T01:43:14;0.60;;;0.60;;
3245;SDS011;1635;48.000;10.582;2022-07-29T01:45:56;0.50;;;0.50;;
3245;SDS011;1635;48.000;10.582;2022-07-29T01:48:34;0.60;;;0.60;;
3245;SDS011;1635;48.000;10.582;2022-07-29T01:51:19;0.70;;;0.70;;
3245;SDS011;1635;48.000;10.582;2022-07-29T01:54:01;0.70;;;0.70;;
3245;SDS011;1635;48.000;10.582;2022-07-29T01:56:42;0.90;;;0.90;;
3245;SDS011;1635;48.000;10.582;2022-07-29T01:59:11;0.60;;;0.60;;
3245;SDS011;1635;48.000;10.582;2022-07-29T02:01:39;0.60;;;0.60;;
3245;SDS011;1635;48.000;10.582;2022-07-29T02:04:12;0.60;;;0.60;;
3245;SDS011;1635;48.000;10.582;2022-07-29T02:07:00;0.60;;;0.60;;
3245;SDS011;1635;48.000;10.582;2022-07-29T02:09:33;0.60;;;0.60;;
3245;SDS011;1635;48.000;10.582;2022-07-29T02:12:03;0.60;;;0.60;;
3245;SDS011;1635;48.000;10.582;2022-07-29T02:14:40;0.63;;;0.63;;
3245;SDS011;1635;48.000;10.582;2022-07-29T02:17:23;0.70;;;0.70;;
3245;SDS011;1635;48.000;10.582;2022-07-29T02:19:56;0.50;;;0.50;;
3245;SDS011;1635;48.000;10.582;2022-07-29T02:22:28;0.60;;;0.60;;
3245;SDS011;1635;48.000;10.582;2022-07-29T02:24:58;0.60;;;0.60;;
3245;SDS011;1635;48.000;10.582;2022-07-29T02:27:27;0.70;;;0.70;;
3245;SDS011;1635;48.000;10.582;2022-07-29T02:29:57;0.60;;;0.60;;
3245;SDS011;1635;48.000;10.582;2022-07-29T02:32:27;0.60;;;0.60;;
3245;SDS011;1635;48.000;10.582;2022-07-29T02:34:56;0.60;;;0.60;;
3245;SDS011;1635;48.000;10.582;2022-07-29T02:37:26;0.50;;;0.50;;
3245;SDS011;1635;48.000;10.582;2022-07-29T02:39:56;0.60;;;0.60;;
3245;SDS011;1635;48.000;10.582;2022-07-29T02:42:26;0.60;;;0.60;;
3245;SDS011;1635;48.000;10.582;2022-07-29T02:44:55;0.60;;;0.60;;
3245;SDS011;1635;48.000;10.582;2022-07-29T02:47:41;0.50;;;0.50;;
3245;SDS011;1635;48.000;10.582;2022-07-29T02:50:15;0.90;;;0.90;;
3245;SDS011;1635;48.000;10.582;2022-07-29T02:52:55;0.70;;;0.70;;
3245;SDS011;1635;48.000;10.582;2022-07-29T02:55:40;1.03;;;1.03;;
3245;SDS011;1635;48.000;10.582;2022-07-29T02:58:25;0.60;;;0.60;;
3245;SDS011;1635;48.000;10.582;2022-07-29T03:01:24;0.60;;;0.60;;
3245;SDS011;1635;48.000;10.582;2022-07-29T03:03:59;0.60;;;0.60;;
3245;SDS011;1635;48.000;10.582;2022-07-29T03:06:30;0.70;;;0.70;;
3245;SDS011;1635;48.000;10.582;2022-07-29T03:09:04;0.60;;;0.60;;
3245;SDS011;1635;48.000;10.582;2022-07-29T03:11:40;0.80;;;0.80;;
3245;SDS011;1635;48.000;10.582;2022-07-29T03:14:17;0.83;;;0.83;;
3245;SDS011;1635;48.000;10.582;2022-07-29T03:16:48;0.60;;;0.60;;
3245;SDS011;1635;48.000;10.582;2022-07-29T03:19:16;0.50;;;0.50;;
3245;SDS011;1635;48.000;10.582;2022-07-29T03:21:45;0.60;;;0.60;;
3245;SDS011;1635;48.000;10.582;2022-07-29T03:24:26;0.60;;;0.60;;
3245;SDS011;1635;48.000;10.582;2022-07-29T03:27:04;0.60;;;0.60;;
3245;SDS011;1635;48.000;10.582;2022-07-29T03:29:32;0.60;;;0.60;;
3245;SDS011;1635;48.000;10.582;2022-07-29T03:32:02;0.60;;;0.60;;
3245;SDS011;1635;48.000;10.582;2022-07-29T03:34:34;0.70;;;0.70;;
3245;SDS011;1635;48.000;10.582;2022-07-29T03:37:05;0.60;;;0.60;;
3245;SDS011;1635;48.000;10.582;2022-07-29T03:39:35;0.50;;;0.50;;
3245;SDS011;1635;48.000;10.582;2022-07-29T03:42:08;0.70;;;0.70;;
3245;SDS011;1635;48.000;10.582;2022-07-29T03:44:41;0.60;;;0.60;;
3245;SDS011;1635;48.000;10.582;2022-07-29T03:47:12;0.60;;;0.60;;
3245;SDS011;1635;48.000;10.582;2022-07-29T03:49:41;0.53;;;0.53;;
3245;SDS011;1635;48.000;10.582;2022-07-29T03:52:12;0.60;;;0.60;;
3245;SDS011;1635;48.000;10.582;2022-07-29T03:54:40;0.60;;;0.60;;
3245;SDS011;1635;48.000;10.582;2022-07-29T03:57:09;0.60;;;0.60;;
3245;SDS011;1635;48.000;10.582;2022-07-29T03:59:38;0.60;;;0.60;;
3245;SDS011;1635;48.000;10.582;2022-07-29T04:02:08;0.60;;;0.60;;
3245;SDS011;1635;48.000;10.582;2022-07-29T04:04:37;0.70;;;0.70;;
3245;SDS011;1635;48.000;10.582;2022-07-29T04:07:06;0.70;;;0.70;;
3245;SDS011;1635;48.000;10.582;2022-07-29T04:09:33;0.60;;;0.60;;
3245;SDS011;1635;48.000;10.582;2022-07-29T04:12:02;1.07;;;1.00;;
3245;SDS011;1635;48.000;10.582;2022-07-29T04:14:31;0.60;;;0.60;;
3245;SDS011;1635;48.000;10.582;2022-07-29T04:17:00;0.60;;;0.60;;
3245;SDS011;1635;48.000;10.582;2022-07-29T04:19:28;0.60;;;0.60;;
3245;SDS011;1635;48.000;10.582;2022-07-29T04:21:57;0.50;;;0.50;;
3245;SDS011;1635;48.000;10.582;2022-07-29T04:24:27;0.60;;;0.60;;
3245;SDS011;1635;48.000;10.582;2022-07-29T04:26:55;0.60;;;0.60;;
3245;SDS011;1635;48.000;10.582;2022-07-29T04:29:24;0.60;;;0.60;;
3245;SDS011;1635;48.000;10.582;2022-07-29T04:31:51;0.60;;;0.60;;
3245;SDS011;1635;48.000;10.582;2022-07-29T04:34:19;0.67;;;0.67;;
3245;SDS011;1635;48.000;10.582;2022-07-29T04:36:48;0.67;;;0.67;;
3245;SDS011;1635;48.000;10.582;2022-07-29T04:39:16;0.70;;;0.70;;
3245;SDS011;1635;48.000;10.582;2022-07-29T04:41:49;0.53;;;0.53;;
3245;SDS011;1635;48.000;10.582;2022-07-29T04:44:20;0.50;;;0.50;;
3245;SDS011;1635;48.000;10.582;2022-07-29T04:46:56;0.57;;;0.57;;
3245;SDS011;1635;48.000;10.582;2022-07-29T04:49:24;0.60;;;0.60;;
3245;SDS011;1635;48.000;10.582;2022-07-29T04:51:54;0.60;;;0.60;;
3245;SDS011;1635;48.000;10.582;2022-07-29T04:54:21;1.00;;;1.00;;
3245;SDS011;1635;48.000;10.582;2022-07-29T04:56:52;0.57;;;0.57;;
3245;SDS011;1635;48.000;10.582;2022-07-29T04:59:19;0.60;;;0.60;;
3245;SDS011;1635;48.000;10.582;2022-07-29T05:01:47;0.60;;;0.60;;
3245;SDS011;1635;48.000;10.582;2022-07-29T05:04:15;0.80;;;0.80;;
3245;SDS011;1635;48.000;10.582;2022-07-29T05:06:44;0.60;;;0.60;;
3245;SDS011;1635;48.000;10.582;2022-07-29T05:09:11;0.70;;;0.70;;
3245;SDS011;1635;48.000;10.582;2022-07-29T05:11:39;0.70;;;0.70;;
3245;SDS011;1635;48.000;10.582;2022-07-29T05:14:07;0.60;;;0.60;;
3245;SDS011;1635;48.000;10.582;2022-07-29T05:16:35;0.70;;;0.70;;
3245;SDS011;1635;48.000;10.582;2022-07-29T05:19:03;0.70;;;0.70;;
3245;SDS011;1635;48.000;10.582;2022-07-29T05:21:31;0.70;;;0.70;;
3245;SDS011;1635;48.000;10.582;2022-07-29T05:23:59;4.57;;;4.20;;
3245;SDS011;1635;48.000;10.582;2022-07-29T05:26:27;0.80;;;0.80;;
3245;SDS011;1635;48.000;10.582;2022-07-29T05:28:55;0.80;;;0.80;;
3245;SDS011;1635;48.000;10.582;2022-07-29T05:31:25;1.47;;;1.03;;
3245;SDS011;1635;48.000;10.582;2022-07-29T05:33:53;0.70;;;0.70;;
3245;SDS011;1635;48.000;10.582;2022-07-29T05:36:20;0.80;;;0.80;;
3245;SDS011;1635;48.000;10.582;2022-07-29T05:38:48;0.80;;;0.80;;
3245;SDS011;1635;48.000;10.582;2022-07-29T05:41:18;1.10;;;1.10;;
3245;SDS011;1635;48.000;10.582;2022-07-29T05:43:47;1.27;;;1.27;;
3245;SDS011;1635;48.000;10.582;2022-07-29T05:46:14;1.70;;;1.70;;
3245;SDS011;1635;48.000;10.582;2022-07-29T05:48:42;2.07;;;1.97;;
3245;SDS011;1635;48.000;10.582;2022-07-29T05:51:10;2.20;;;2.10;;
3245;SDS011;1635;48.000;10.582;2022-07-29T05:53:38;3.20;;;3.10;;
3245;SDS011;1635;48.000;10.582;2022-07-29T05:56:06;4.03;;;3.90;;
3245;SDS011;1635;48.000;10.582;2022-07-29T05:58:34;4.13;;;4.03;;
3245;SDS011;1635;48.000;10.582;2022-07-29T06:01:02;4.10;;;4.00;;
3245;SDS011;1635;48.000;10.582;2022-07-29T06:03:30;4.60;;;4.50;;
3245;SDS011;1635;48.000;10.582;2022-07-29T06:05:58;4.70;;;4.60;;
3245;SDS011;1635;48.000;10.582;2022-07-29T06:08:27;4.40;;;4.30;;
3245;SDS011;1635;48.000;10.582;2022-07-29T06:10:55;4.10;;;4.00;;
3245;SDS011;1635;48.000;10.582;2022-07-29T06:13:23;4.00;;;3.90;;
3245;SDS011;1635;48.000;10.582;2022-07-29T06:15:51;4.63;;;4.53;;
3245;SDS011;1635;48.000;10.582;2022-07-29T06:18:19;4.50;;;4.40;;
3245;SDS011;1635;48.000;10.582;2022-07-29T06:20:50;4.50;;;4.40;;
3245;SDS011;1635;48.000;10.582;2022-07-29T06:23:19;4.63;;;4.53;;
3245;SDS011;1635;48.000;10.582;2022-07-29T06:25:46;5.77;;;5.37;;
3245;SDS011;1635;48.000;10.582;2022-07-29T06:28:14;4.93;;;4.83;;
3245;SDS011;1635;48.000;10.582;2022-07-29T06:30:42;4.37;;;4.27;;
3245;SDS011;1635;48.000;10.582;2022-07-29T06:33:15;4.30;;;4.20;;
3245;SDS011;1635;48.000;10.582;2022-07-29T06:35:44;5.30;;;5.20;;
3245;SDS011;1635;48.000;10.582;2022-07-29T06:38:20;5.10;;;5.00;;
3245;SDS011;1635;48.000;10.582;2022-07-29T06:40:57;4.47;;;4.37;;
3245;SDS011;1635;48.000;10.582;2022-07-29T06:43:32;4.60;;;4.50;;
3245;SDS011;1635;48.000;10.582;2022-07-29T06:46:16;4.40;;;4.30;;
3245;SDS011;1635;48.000;10.582;2022-07-29T06:48:46;3.90;;;3.80;;
3245;SDS011;1635;48.000;10.582;2022-07-29T06:51:15;3.80;;;3.70;;
3245;SDS011;1635;48.000;10.582;2022-07-29T06:53:54;4.10;;;4.00;;
3245;SDS011;1635;48.000;10.582;2022-07-29T06:56:38;3.90;;;3.80;;
3245;SDS011;1635;48.000;10.582;2022-07-29T06:59:09;4.27;;;4.17;;
3245;SDS011;1635;48.000;10.582;2022-07-29T07:01:38;2.97;;;2.87;;
3245;SDS011;1635;48.000;10.582;2022-07-29T07:04:06;3.43;;;3.33;;
3245;SDS011;1635;48.000;10.582;2022-07-29T07:06:38;3.50;;;3.40;;
3245;SDS011;1635;48.000;10.582;2022-07-29T07:09:06;3.70;;;3.60;;
3245;SDS011;1635;48.000;10.582;2022-07-29T07:11:34;3.43;;;3.33;;
3245;SDS011;1635;48.000;10.582;2022-07-29T07:14:01;3.40;;;3.30;;
3245;SDS011;1635;48.000;10.582;2022-07-29T07:16:40;3.03;;;2.93;;
3245;SDS011;1635;48.000;10.582;2022-07-29T07:19:09;3.27;;;3.17;;
3245;SDS011;1635;48.000;10.582;2022-07-29T07:21:36;2.83;;;2.73;;
3245;SDS011;1635;48.000;10.582;2022-07-29T07:24:05;2.73;;;2.63;;
3245;SDS011;1635;48.000;10.582;2022-07-29T07:26:33;2.90;;;2.80;;
3245;SDS011;1635;48.000;10.582;2022-07-29T07:29:03;2.80;;;2.70;;
3245;SDS011;1635;48.000;10.582;2022-07-29T07:31:30;2.73;;;2.63;;
3245;SDS011;1635;48.000;10.582;2022-07-29T07:33:58;2.80;;;2.70;;
3245;SDS011;1635;48.000;10.582;2022-07-29T07:36:26;2.63;;;2.53;;
3245;SDS011;1635;48.000;10.582;2022-07-29T07:38:54;2.20;;;2.10;;
3245;SDS011;1635;48.000;10.582;2022-07-29T07:41:22;3.03;;;2.93;;
3245;SDS011;1635;48.000;10.582;2022-07-29T07:43:51;2.87;;;2.77;;
3245;SDS011;1635;48.000;10.582;2022-07-29T07:46:19;2.70;;;2.60;;
3245;SDS011;1635;48.000;10.582;2022-07-29T07:48:47;2.93;;;2.83;;
3245;SDS011;1635;48.000;10.582;2022-07-29T07:51:15;3.40;;;3.30;;
3245;SDS011;1635;48.000;10.582;2022-07-29T07:53:43;3.10;;;3.00;;
3245;SDS011;1635;48.000;10.582;2022-07-29T07:56:12;2.87;;;2.77;;
3245;SDS011;1635;48.000;10.582;2022-07-29T07:58:40;2.70;;;2.60;;
3245;SDS011;1635;48.000;10.582;2022-07-29T08:01:09;3.00;;;2.90;;
3245;SDS011;1635;48.000;10.582;2022-07-29T08:03:36;2.80;;;2.70;;
3245;SDS011;1635;48.000;10.582;2022-07-29T08:06:05;2.10;;;2.00;;
3245;SDS011;1635;48.000;10.582;2022-07-29T08:08:32;2.50;;;2.40;;
3245;SDS011;1635;48.000;10.582;2022-07-29T08:11:01;2.90;;;2.80;;
3245;SDS011;1635;48.000;10.582;2022-07-29T08:13:37;2.60;;;2.50;;
3245;SDS011;1635;48.000;10.582;2022-07-29T08:16:06;2.73;;;2.63;;
3245;SDS011;1635;48.000;10.582;2022-07-29T08:18:41;2.40;;;2.30;;
3245;SDS011;1635;48.000;10.582;2022-07-29T08:21:09;2.50;;;2.40;;
3245;SDS011;1635;48.000;10.582;2022-07-29T08:23:42;2.53;;;2.43;;
3245;SDS011;1635;48.000;10.582;2022-07-29T08:26:28;2.70;;;2.60;;
3245;SDS011;1635;48.000;10.582;2022-07-29T08:28:57;2.80;;;2.70;;
3245;SDS011;1635;48.000;10.582;2022-07-29T08:31:25;2.60;;;2.50;;
3245;SDS011;1635;48.000;10.582;2022-07-29T08:33:53;2.60;;;2.50;;
3245;SDS011;1635;48.000;10.582;2022-07-29T08:36:23;2.60;;;2.50;;
3245;SDS011;1635;48.000;10.582;2022-07-29T08:38:52;2.40;;;2.30;;
3245;SDS011;1635;48.000;10.582;2022-07-29T08:41:21;2.67;;;2.57;;
3245;SDS011;1635;48.000;10.582;2022-07-29T08:43:49;2.80;;;2.70;;
3245;SDS011;1635;48.000;10.582;2022-07-29T08:46:19;2.60;;;2.50;;
3245;SDS011;1635;48.000;10.582;2022-07-29T08:48:48;2.53;;;2.43;;
3245;SDS011;1635;48.000;10.582;2022-07-29T08:51:18;2.60;;;2.50;;
3245;SDS011;1635;48.000;10.582;2022-07-29T08:53:48;2.70;;;2.60;;
3245;SDS011;1635;48.000;10.582;2022-07-29T08:56:18;2.50;;;2.40;;
3245;SDS011;1635;48.000;10.582;2022-07-29T08:58:46;2.47;;;2.37;;
3245;SDS011;1635;48.000;10.582;2022-07-29T09:01:22;2.70;;;2.60;;
3245;SDS011;1635;48.000;10.582;2022-07-29T09:04:11;3.00;;;2.90;;
3245;SDS011;1635;48.000;10.582;2022-07-29T09:06:42;3.00;;;2.90;;
3245;SDS011;1635;48.000;10.582;2022-07-29T09:09:12;3.00;;;2.90;;
3245;SDS011;1635;48.000;10.582;2022-07-29T09:11:41;2.83;;;2.73;;
3245;SDS011;1635;48.000;10.582;2022-07-29T09:14:11;3.10;;;3.00;;
3245;SDS011;1635;48.000;10.582;2022-07-29T09:16:44;3.00;;;2.90;;
3245;SDS011;1635;48.000;10.582;2022-07-29T09:19:21;2.90;;;2.80;;
3245;SDS011;1635;48.000;10.582;2022-07-29T09:21:53;2.53;;;2.43;;
3245;SDS011;1635;48.000;10.582;2022-07-29T09:24:26;2.90;;;2.80;;
3245;SDS011;1635;48.000;10.582;2022-07-29T09:27:01;2.80;;;2.70;;
3245;SDS011;1635;48.000;10.582;2022-07-29T09:29:29;2.60;;;2.50;;
3245;SDS011;1635;48.000;10.582;2022-07-29T09:32:02;2.93;;;2.83;;
3245;SDS011;1635;48.000;10.582;2022-07-29T09:34:36;3.00;;;2.90;;
3245;SDS011;1635;48.000;10.582;2022-07-29T09:37:05;3.20;;;3.00;;
3245;SDS011;1635;48.000;10.582;2022-07-29T09:39:33;2.83;;;2.73;;
3245;SDS011;1635;48.000;10.582;2022-07-29T09:42:05;2.83;;;2.73;;
3245;SDS011;1635;48.000;10.582;2022-07-29T09:47:12;2.77;;;2.67;;
3245;SDS011;1635;48.000;10.582;2022-07-29T09:49:51;2.47;;;2.37;;
3245;SDS011;1635;48.000;10.582;2022-07-29T09:52:22;2.97;;;2.87;;
3245;SDS011;1635;48.000;10.582;2022-07-29T09:54:49;2.80;;;2.70;;
3245;SDS011;1635;48.000;10.582;2022-07-29T09:57:26;2.40;;;2.30;;
3245;SDS011;1635;48.000;10.582;2022-07-29T10:02:39;2.40;;;2.30;;
3245;SDS011;1635;48.000;10.582;2022-07-29T10:05:29;3.50;;;3.30;;
3245;SDS011;1635;48.000;10.582;2022-07-29T10:08:03;2.60;;;2.50;;
3245;SDS011;1635;48.000;10.582;2022-07-29T10:10:32;2.50;;;2.40;;
3245;SDS011;1635;48.000;10.582;2022-07-29T10:13:03;2.20;;;2.10;;
3245;SDS011;1635;48.000;10.582;2022-07-29T10:15:38;2.20;;;2.10;;
3245;SDS011;1635;48.000;10.582;2022-07-29T10:18:08;2.20;;;2.10;;
3245;SDS011;1635;48.000;10.582;2022-07-29T10:20:39;2.30;;;2.20;;
3245;SDS011;1635;48.000;10.582;2022-07-29T10:23:08;2.60;;;2.50;;
3245;SDS011;1635;48.000;10.582;2022-07-29T10:25:36;2.30;;;2.20;;
3245;SDS011;1635;48.000;10.582;2022-07-29T10:28:04;2.30;;;2.20;;
3245;SDS011;1635;48.000;10.582;2022-07-29T10:30:32;2.07;;;1.97;;
3245;SDS011;1635;48.000;10.582;2022-07-29T10:38:42;2.77;;;2.67;;
3245;SDS011;1635;48.000;10.582;2022-07-29T10:44:20;2.27;;;2.17;;
3245;SDS011;1635;48.000;10.582;2022-07-29T10:46:51;2.10;;;2.00;;
3245;SDS011;1635;48.000;10.582;2022-07-29T10:49:21;2.00;;;1.90;;
3245;SDS011;1635;48.000;10.582;2022-07-29T10:52:08;2.67;;;2.57;;
3245;SDS011;1635;48.000;10.582;2022-07-29T10:54:40;2.20;;;2.10;;
3245;SDS011;1635;48.000;10.582;2022-07-29T11:02:43;2.50;;;2.40;;
3245;SDS011;1635;48.000;10.582;2022-07-29T11:05:17;2.33;;;2.23;;
3245;SDS011;1635;48.000;10.582;2022-07-29T11:11:31;2.60;;;2.40;;
3245;SDS011;1635;48.000;10.582;2022-07-29T11:13:48;2.40;;;2.30;;
3245;SDS011;1635;48.000;10.582;2022-07-29T11:16:20;2.77;;;2.63;;
3245;SDS011;1635;48.000;10.582;2022-07-29T11:21:43;2.77;;;2.67;;
3245;SDS011;1635;48.000;10.582;2022-07-29T11:24:32;2.60;;;2.50;;
3245;SDS011;1635;48.000;10.582;2022-07-29T11:27:15;2.20;;;2.10;;
3245;SDS011;1635;48.000;10.582;2022-07-29T11:29:54;2.80;;;2.70;;
3245;SDS011;1635;48.000;10.582;2022-07-29T11:32:36;2.20;;;2.10;;
3245;SDS011;1635;48.000;10.582;2022-07-29T11:35:21;2.20;;;2.10;;
3245;SDS011;1635;48.000;10.582;2022-07-29T11:43:59;1.93;;;1.83;;
3245;SDS011;1635;48.000;10.582;2022-07-29T11:46:46;2.10;;;2.00;;
3245;SDS011;1635;48.000;10.582;2022-07-29T11:49:26;2.17;;;2.07;;
3245;SDS011;1635;48.000;10.582;2022-07-29T11:51:58;1.90;;;1.80;;
3245;SDS011;1635;48.000;10.582;2022-07-29T11:54:34;2.67;;;2.50;;
3245;SDS011;1635;48.000;10.582;2022-07-29T11:57:21;2.57;;;2.47;;
3245;SDS011;1635;48.000;10.582;2022-07-29T12:00:06;2.20;;;2.10;;
3245;SDS011;1635;48.000;10.582;2022-07-29T12:02:41;2.23;;;2.13;;
3245;SDS011;1635;48.000;10.582;2022-07-29T12:05:15;2.40;;;2.27;;
3245;SDS011;1635;48.000;10.582;2022-07-29T12:08:05;1.80;;;1.70;;
3245;SDS011;1635;48.000;10.582;2022-07-29T12:10:39;1.87;;;1.77;;
3245;SDS011;1635;48.000;10.582;2022-07-29T12:13:10;1.60;;;1.60;;
3245;SDS011;1635;48.000;10.582;2022-07-29T12:15:39;1.90;;;1.80;;
3245;SDS011;1635;48.000;10.582;2022-07-29T12:18:18;2.10;;;1.90;;
3245;SDS011;1635;48.000;10.582;2022-07-29T12:21:00;2.90;;;2.80;;
3245;SDS011;1635;48.000;10.582;2022-07-29T12:23:32;1.40;;;1.40;;
3245;SDS011;1635;48.000;10.582;2022-07-29T12:26:05;2.20;;;2.10;;
3245;SDS011;1635;48.000;10.582;2022-07-29T12:28:37;3.10;;;3.00;;
3245;SDS011;1635;48.000;10.582;2022-07-29T12:31:05;2.60;;;2.50;;
3245;SDS011;1635;48.000;10.582;2022-07-29T12:33:40;2.80;;;2.70;;
3245;SDS011;1635;48.000;10.582;2022-07-29T12:36:08;2.60;;;2.50;;
3245;SDS011;1635;48.000;10.582;2022-07-29T12:38:44;2.20;;;2.10;;
3245;SDS011;1635;48.000;10.582;2022-07-29T12:41:12;2.20;;;2.10;;
3245;SDS011;1635;48.000;10.582;2022-07-29T12:43:52;1.97;;;1.87;;
3245;SDS011;1635;48.000;10.582;2022-07-29T12:46:21;1.83;;;1.73;;
3245;SDS011;1635;48.000;10.582;2022-07-29T12:48:52;1.90;;;1.80;;
3245;SDS011;1635;48.000;10.582;2022-07-29T12:51:39;1.70;;;1.60;;
3245;SDS011;1635;48.000;10.582;2022-07-29T12:56:43;1.93;;;1.73;;
3245;SDS011;1635;48.000;10.582;2022-07-29T13:01:45;1.70;;;1.70;;
3245;SDS011;1635;48.000;10.582;2022-07-29T13:04:33;1.50;;;1.50;;
3245;SDS011;1635;48.000;10.582;2022-07-29T13:07:07;1.80;;;1.70;;
3245;SDS011;1635;48.000;10.582;2022-07-29T13:09:39;1.80;;;1.70;;
3245;SDS011;1635;48.000;10.582;2022-07-29T13:12:10;1.50;;;1.50;;
3245;SDS011;1635;48.000;10.582;2022-07-29T13:14:43;1.40;;;1.40;;
3245;SDS011;1635;48.000;10.582;2022-07-29T13:17:23;3.47;;;1.80;;
3245;SDS011;1635;48.000;10.582;2022-07-29T13:19:53;1.47;;;1.47;;
3245;SDS011;1635;48.000;10.582;2022-07-29T13:22:36;2.23;;;2.07;;
3245;SDS011;1635;48.000;10.582;2022-07-29T13:25:05;1.40;;;1.40;;
3245;SDS011;1635;48.000;10.582;2022-07-29T13:27:34;1.90;;;1.80;;
3245;SDS011;1635;48.000;10.582;2022-07-29T13:30:08;1.93;;;1.80;;
3245;SDS011;1635;48.000;10.582;2022-07-29T13:32:37;1.50;;;1.50;;
3245;SDS011;1635;48.000;10.582;2022-07-29T13:35:05;1.50;;;1.50;;
3245;SDS011;1635;48.000;10.582;2022-07-29T13:37:34;1.57;;;1.50;;
3245;SDS011;1635;48.000;10.582;2022-07-29T13:40:07;1.70;;;1.60;;
3245;SDS011;1635;48.000;10.582;2022-07-29T13:42:36;1.50;;;1.50;;
3245;SDS011;1635;48.000;10.582;2022-07-29T13:45:05;1.60;;;1.60;;
3245;SDS011;1635;48.000;10.582;2022-07-29T13:47:34;2.00;;;1.90;;
3245;SDS011;1635;48.000;10.582;2022-07-29T13:50:03;1.60;;;1.60;;
3245;SDS011;1635;48.000;10.582;2022-07-29T13:52:33;2.00;;;1.90;;
3245;SDS011;1635;48.000;10.582;2022-07-29T13:55:02;2.40;;;2.30;;
3245;SDS011;1635;48.000;10.582;2022-07-29T13:57:31;2.03;;;1.93;;
3245;SDS011;1635;48.000;10.582;2022-07-29T13:59:58;2.00;;;1.90;;
3245;SDS011;1635;48.000;10.582;2022-07-29T14:02:27;2.00;;;1.90;;
3245;SDS011;1635;48.000;10.582;2022-07-29T14:04:57;2.00;;;1.90;;
3245;SDS011;1635;48.000;10.582;2022-07-29T14:07:24;2.20;;;2.00;;
3245;SDS011;1635;48.000;10.582;2022-07-29T14:09:52;2.40;;;2.30;;
3245;SDS011;1635;48.000;10.582;2022-07-29T14:12:19;2.30;;;2.20;;
3245;SDS011;1635;48.000;10.582;2022-07-29T14:14:47;2.00;;;1.90;;
3245;SDS011;1635;48.000;10.582;2022-07-29T14:17:16;2.73;;;2.63;;
3245;SDS011;1635;48.000;10.582;2022-07-29T14:19:44;1.90;;;1.80;;
3245;SDS011;1635;48.000;10.582;2022-07-29T14:22:13;2.10;;;2.00;;
3245;SDS011;1635;48.000;10.582;2022-07-29T14:24:42;1.80;;;1.70;;
3245;SDS011;1635;48.000;10.582;2022-07-29T14:27:10;1.97;;;1.87;;
3245;SDS011;1635;48.000;10.582;2022-07-29T14:29:38;1.90;;;1.80;;
3245;SDS011;1635;48.000;10.582;2022-07-29T14:32:07;2.00;;;1.90;;
3245;SDS011;1635;48.000;10.582;2022-07-29T14:34:38;1.77;;;1.70;;
3245;SDS011;1635;48.000;10.582;2022-07-29T14:37:06;1.70;;;1.70;;
3245;SDS011;1635;48.000;10.582;2022-07-29T14:39:41;1.77;;;1.70;;
3245;SDS011;1635;48.000;10.582;2022-07-29T14:42:10;1.80;;;1.70;;
3245;SDS011;1635;48.000;10.582;2022-07-29T14:44:39;1.90;;;1.80;;
3245;SDS011;1635;48.000;10.582;2022-07-29T14:47:08;1.90;;;1.80;;
3245;SDS011;1635;48.000;10.582;2022-07-29T14:49:37;2.00;;;1.90;;
3245;SDS011;1635;48.000;10.582;2022-07-29T14:52:04;2.80;;;2.70;;
3245;SDS011;1635;48.000;10.582;2022-07-29T14:54:33;2.00;;;1.90;;
3245;SDS011;1635;48.000;10.582;2022-07-29T14:57:00;11.47;;;2.30;;
3245;SDS011;1635;48.000;10.582;2022-07-29T14:59:29;2.20;;;2.10;;
3245;SDS011;1635;48.000;10.582;2022-07-29T15:01:56;1.90;;;1.80;;
3245;SDS011;1635;48.000;10.582;2022-07-29T15:04:25;2.00;;;1.90;;
3245;SDS011;1635;48.000;10.582;2022-07-29T15:06:54;1.90;;;1.80;;
3245;SDS011;1635;48.000;10.582;2022-07-29T15:09:21;2.00;;;1.90;;
3245;SDS011;1635;48.000;10.582;2022-07-29T15:11:50;1.50;;;1.50;;
3245;SDS011;1635;48.000;10.582;2022-07-29T15:14:18;2.10;;;2.00;;
3245;SDS011;1635;48.000;10.582;2022-07-29T15:16:46;1.60;;;1.60;;
3245;SDS011;1635;48.000;10.582;2022-07-29T15:19:14;1.83;;;1.77;;
3245;SDS011;1635;48.000;10.582;2022-07-29T15:21:42;1.77;;;1.67;;
3245;SDS011;1635;48.000;10.582;2022-07-29T15:24:18;1.90;;;1.80;;
3245;SDS011;1635;48.000;10.582;2022-07-29T15:26:47;2.17;;;2.03;;
3245;SDS011;1635;48.000;10.582;2022-07-29T15:29:14;1.87;;;1.77;;
3245;SDS011;1635;48.000;10.582;2022-07-29T15:31:43;1.90;;;1.80;;
3245;SDS011;1635;48.000;10.582;2022-07-29T15:34:10;1.30;;;1.30;;
3245;SDS011;1635;48.000;10.582;2022-07-29T15:36:39;5.63;;;1.93;;
3245;SDS011;1635;48.000;10.582;2022-07-29T15:39:21;1.50;;;1.50;;
3245;SDS011;1635;48.000;10.582;2022-07-29T15:41:49;1.90;;;1.80;;
3245;SDS011;1635;48.000;10.582;2022-07-29T15:44:18;2.87;;;1.70;;
3245;SDS011;1635;48.000;10.582;2022-07-29T15:46:49;1.50;;;1.50;;
3245;SDS011;1635;48.000;10.582;2022-07-29T15:49:33;1.40;;;1.40;;
3245;SDS011;1635;48.000;10.582;2022-07-29T15:52:16;1.90;;;1.80;;
3245;SDS011;1635;48.000;10.582;2022-07-29T15:54:53;1.50;;;1.50;;
3245;SDS011;1635;48.000;10.582;2022-07-29T15:57:22;1.40;;;1.40;;
3245;SDS011;1635;48.000;10.582;2022-07-29T15:59:51;1.40;;;1.40;;
3245;SDS011;1635;48.000;10.582;2022-07-29T16:02:19;1.33;;;1.33;;
3245;SDS011;1635;48.000;10.582;2022-07-29T16:04:46;1.40;;;1.40;;
3245;SDS011;1635;48.000;10.582;2022-07-29T16:07:14;2.50;;;2.40;;